sensor_id;sensor_type;location;lat;lon;timestamp;pressure;altitude;pressure_sealevel;temperature;humidity
57232;BME280;43488;46.934;8.276;2023-02-11T00:03:57;98436.66;;;-0.12;71.55
57232;BME280;43488;46.934;8.276;2023-02-11T00:06:26;98430.28;;;-0.07;71.11
57232;BME280;43488;46.934;8.276;2023-02-11T00:08:54;98435.00;;;-0.13;71.32
57232;BME280;43488;46.934;8.276;2023-02-11T00:11:24;98435.00;;;-0.13;71.47
57232;BME280;43488;46.934;8.276;2023-02-11T00:13:52;98430.84;;;-0.16;70.98
57232;BME280;43488;46.934;8.276;2023-02-11T00:16:20;98433.59;;;-0.19;69.66
57232;BME280;43488;46.934;8.276;2023-02-11T00:18:48;98436.28;;;-0.20;70.23
57232;BME280;43488;46.934;8.276;2023-02-11T00:21:19;98438.88;;;-0.20;69.47
57232;BME280;43488;46.934;8.276;2023-02-11T00:23:47;98438.25;;;-0.24;69.80
57232;BME280;43488;46.934;8.276;2023-02-11T00:26:21;98439.44;;;-0.30;70.26
57232;BME280;43488;46.934;8.276;2023-02-11T00:28:50;98436.00;;;-0.30;69.82
57232;BME280;43488;46.934;8.276;2023-02-11T00:31:20;98441.75;;;-0.25;70.02
57232;BME280;43488;46.934;8.276;2023-02-11T00:33:49;98444.59;;;-0.30;69.42
57232;BME280;43488;46.934;8.276;2023-02-11T00:36:21;98432.59;;;-0.31;69.47
57232;BME280;43488;46.934;8.276;2023-02-11T00:38:49;98435.28;;;-0.32;69.36
57232;BME280;43488;46.934;8.276;2023-02-11T00:41:17;98433.81;;;-0.36;69.65
57232;BME280;43488;46.934;8.276;2023-02-11T00:43:46;98427.88;;;-0.38;69.60
57232;BME280;43488;46.934;8.276;2023-02-11T00:46:14;98431.69;;;-0.44;70.07
57232;BME280;43488;46.934;8.276;2023-02-11T00:48:42;98419.28;;;-0.39;69.66
57232;BME280;43488;46.934;8.276;2023-02-11T00:51:10;98425.47;;;-0.41;68.95
57232;BME280;43488;46.934;8.276;2023-02-11T00:53:38;98426.22;;;-0.39;68.72
57232;BME280;43488;46.934;8.276;2023-02-11T00:56:06;98424.28;;;-0.36;68.32
57232;BME280;43488;46.934;8.276;2023-02-11T00:58:35;98421.59;;;-0.34;68.14
57232;BME280;43488;46.934;8.276;2023-02-11T01:01:03;98414.78;;;-0.35;67.78
57232;BME280;43488;46.934;8.276;2023-02-11T01:03:31;98430.19;;;-0.34;67.99
57232;BME280;43488;46.934;8.276;2023-02-11T01:05:58;98435.25;;;-0.46;68.00
57232;BME280;43488;46.934;8.276;2023-02-11T01:08:25;98428.63;;;-0.50;68.04
57232;BME280;43488;46.934;8.276;2023-02-11T01:11:05;98419.44;;;-0.56;68.43
57232;BME280;43488;46.934;8.276;2023-02-11T01:13:35;98426.47;;;-0.72;68.70
57232;BME280;43488;46.934;8.276;2023-02-11T01:16:06;98422.88;;;-0.70;68.84
57232;BME280;43488;46.934;8.276;2023-02-11T01:18:34;98428.31;;;-0.74;69.05
57232;BME280;43488;46.934;8.276;2023-02-11T01:21:02;98425.72;;;-0.74;70.35
57232;BME280;43488;46.934;8.276;2023-02-11T01:23:29;98425.41;;;-0.84;70.81
57232;BME280;43488;46.934;8.276;2023-02-11T01:25:57;98429.31;;;-0.91;71.80
57232;BME280;43488;46.934;8.276;2023-02-11T01:28:27;98426.72;;;-0.91;71.92
57232;BME280;43488;46.934;8.276;2023-02-11T01:30:55;98427.28;;;-0.86;71.60
57232;BME280;43488;46.934;8.276;2023-02-11T01:33:23;98429.75;;;-0.84;71.40
57232;BME280;43488;46.934;8.276;2023-02-11T01:35:51;98413.06;;;-0.79;71.68
57232;BME280;43488;46.934;8.276;2023-02-11T01:38:24;98417.31;;;-0.78;71.76
57232;BME280;43488;46.934;8.276;2023-02-11T01:40:59;98416.97;;;-0.72;71.45
57232;BME280;43488;46.934;8.276;2023-02-11T01:43:32;98414.19;;;-0.69;70.55
57232;BME280;43488;46.934;8.276;2023-02-11T01:46:25;98413.25;;;-0.68;70.34
57232;BME280;43488;46.934;8.276;2023-02-11T01:49:08;98410.03;;;-0.71;70.63
57232;BME280;43488;46.934;8.276;2023-02-11T01:51:47;98407.53;;;-0.73;69.41
57232;BME280;43488;46.934;8.276;2023-02-11T01:54:21;98403.75;;;-0.81;69.08
57232;BME280;43488;46.934;8.276;2023-02-11T01:57:11;98404.56;;;-0.81;70.41
57232;BME280;43488;46.934;8.276;2023-02-11T02:00:20;98393.66;;;-0.86;71.41
57232;BME280;43488;46.934;8.276;2023-02-11T02:02:53;98389.66;;;-0.92;72.79
57232;BME280;43488;46.934;8.276;2023-02-11T02:08:34;98387.94;;;-0.91;73.24
57232;BME280;43488;46.934;8.276;2023-02-11T02:11:04;98387.94;;;-0.91;73.31
57232;BME280;43488;46.934;8.276;2023-02-11T02:13:33;98387.16;;;-0.93;73.20
57232;BME280;43488;46.934;8.276;2023-02-11T02:16:05;98382.94;;;-0.94;72.63
57232;BME280;43488;46.934;8.276;2023-02-11T02:29:18;98374.22;;;-1.07;71.74
57232;BME280;43488;46.934;8.276;2023-02-11T02:38:12;98350.97;;;-1.07;71.82
57232;BME280;43488;46.934;8.276;2023-02-11T02:40:56;98349.66;;;-1.15;72.33
57232;BME280;43488;46.934;8.276;2023-02-11T02:43:26;98354.72;;;-1.13;72.25
57232;BME280;43488;46.934;8.276;2023-02-11T02:46:07;98352.06;;;-1.11;72.00
57232;BME280;43488;46.934;8.276;2023-02-11T02:48:35;98345.31;;;-1.14;71.41
57232;BME280;43488;46.934;8.276;2023-02-11T02:51:30;98349.66;;;-1.15;71.39
57232;BME280;43488;46.934;8.276;2023-02-11T02:57:41;98346.78;;;-1.24;70.79
57232;BME280;43488;46.934;8.276;2023-02-11T03:00:25;98347.78;;;-1.27;70.92
57232;BME280;43488;46.934;8.276;2023-02-11T03:08:33;98329.41;;;-1.22;70.51
57232;BME280;43488;46.934;8.276;2023-02-11T03:11:04;98333.13;;;-1.26;71.00
57232;BME280;43488;46.934;8.276;2023-02-11T03:13:35;98327.13;;;-1.27;71.20
57232;BME280;43488;46.934;8.276;2023-02-11T03:16:20;98321.03;;;-1.26;71.51
57232;BME280;43488;46.934;8.276;2023-02-11T03:19:18;98331.19;;;-1.23;71.52
57232;BME280;43488;46.934;8.276;2023-02-11T03:21:48;98323.97;;;-1.32;71.57
57232;BME280;43488;46.934;8.276;2023-02-11T03:24:34;98326.28;;;-1.27;71.72
57232;BME280;43488;46.934;8.276;2023-02-11T03:32:30;98322.66;;;-1.39;71.42
57232;BME280;43488;46.934;8.276;2023-02-11T03:35:11;98323.56;;;-1.40;71.57
57232;BME280;43488;46.934;8.276;2023-02-11T03:37:55;98325.50;;;-1.44;71.93
57232;BME280;43488;46.934;8.276;2023-02-11T03:40:31;98323.56;;;-1.40;71.39
57232;BME280;43488;46.934;8.276;2023-02-11T03:43:21;98326.00;;;-1.37;71.21
57232;BME280;43488;46.934;8.276;2023-02-11T03:45:50;98326.06;;;-1.38;70.75
57232;BME280;43488;46.934;8.276;2023-02-11T03:48:29;98317.66;;;-1.42;70.14
57232;BME280;43488;46.934;8.276;2023-02-11T03:51:00;98318.78;;;-1.46;71.38
57232;BME280;43488;46.934;8.276;2023-02-11T03:53:28;98313.84;;;-1.51;71.52
57232;BME280;43488;46.934;8.276;2023-02-11T03:55:59;98312.19;;;-1.52;71.76
57232;BME280;43488;46.934;8.276;2023-02-11T03:58:29;98311.38;;;-1.52;71.89
57232;BME280;43488;46.934;8.276;2023-02-11T04:00:57;98313.94;;;-1.52;72.50
57232;BME280;43488;46.934;8.276;2023-02-11T04:03:25;98308.28;;;-1.59;70.49
57232;BME280;43488;46.934;8.276;2023-02-11T04:05:53;98318.06;;;-1.64;70.72
57232;BME280;43488;46.934;8.276;2023-02-11T04:08:20;98324.28;;;-1.82;72.11
57232;BME280;43488;46.934;8.276;2023-02-11T04:10:48;98321.50;;;-1.79;72.76
57232;BME280;43488;46.934;8.276;2023-02-11T04:13:15;98316.06;;;-1.75;72.22
57232;BME280;43488;46.934;8.276;2023-02-11T04:15:45;98313.13;;;-1.83;72.39
57232;BME280;43488;46.934;8.276;2023-02-11T04:18:12;98317.59;;;-1.86;73.21
57232;BME280;43488;46.934;8.276;2023-02-11T04:20:40;98322.53;;;-1.82;72.64
57232;BME280;43488;46.934;8.276;2023-02-11T04:23:07;98318.94;;;-1.79;72.80
57232;BME280;43488;46.934;8.276;2023-02-11T04:25:35;98314.38;;;-1.90;71.92
57232;BME280;43488;46.934;8.276;2023-02-11T04:28:03;98313.47;;;-2.05;72.28
57232;BME280;43488;46.934;8.276;2023-02-11T04:30:31;98316.28;;;-1.93;72.87
57232;BME280;43488;46.934;8.276;2023-02-11T04:32:58;98321.84;;;-1.85;72.73
57232;BME280;43488;46.934;8.276;2023-02-11T04:35:27;98318.13;;;-1.95;72.57
57232;BME280;43488;46.934;8.276;2023-02-11T04:37:54;98328.94;;;-1.89;73.47
57232;BME280;43488;46.934;8.276;2023-02-11T04:40:21;98321.28;;;-1.90;72.60
57232;BME280;43488;46.934;8.276;2023-02-11T04:42:49;98319.69;;;-1.93;72.61
57232;BME280;43488;46.934;8.276;2023-02-11T04:45:16;98324.03;;;-1.93;72.94
57232;BME280;43488;46.934;8.276;2023-02-11T04:47:43;98326.53;;;-1.92;72.91
57232;BME280;43488;46.934;8.276;2023-02-11T04:50:11;98321.38;;;-1.92;75.77
57232;BME280;43488;46.934;8.276;2023-02-11T04:52:38;98318.63;;;-1.89;75.50
57232;BME280;43488;46.934;8.276;2023-02-11T04:55:06;98318.63;;;-1.89;73.77
57232;BME280;43488;46.934;8.276;2023-02-11T04:57:33;98322.94;;;-1.89;73.88
57232;BME280;43488;46.934;8.276;2023-02-11T05:00:02;98325.63;;;-1.91;73.76
57232;BME280;43488;46.934;8.276;2023-02-11T05:02:30;98320.47;;;-1.91;73.81
57232;BME280;43488;46.934;8.276;2023-02-11T05:04:58;98321.38;;;-1.92;74.04
57232;BME280;43488;46.934;8.276;2023-02-11T05:07:25;98316.38;;;-1.95;74.29
57232;BME280;43488;46.934;8.276;2023-02-11T05:09:52;98315.63;;;-1.97;74.50
57232;BME280;43488;46.934;8.276;2023-02-11T05:12:22;98320.47;;;-1.91;74.26
57232;BME280;43488;46.934;8.276;2023-02-11T05:14:49;98320.47;;;-1.91;73.56
57232;BME280;43488;46.934;8.276;2023-02-11T05:17:17;98319.97;;;-1.97;72.96
57232;BME280;43488;46.934;8.276;2023-02-11T05:19:45;98328.38;;;-2.10;72.69
57232;BME280;43488;46.934;8.276;2023-02-11T05:22:12;98324.97;;;-2.10;72.96
57232;BME280;43488;46.934;8.276;2023-02-11T05:24:39;98328.28;;;-2.08;73.32
57232;BME280;43488;46.934;8.276;2023-02-11T05:27:07;98331.72;;;-2.08;73.83
57232;BME280;43488;46.934;8.276;2023-02-11T05:29:34;98335.13;;;-2.07;74.41
57232;BME280;43488;46.934;8.276;2023-02-11T05:32:02;98326.63;;;-2.09;74.44
57232;BME280;43488;46.934;8.276;2023-02-11T05:34:29;98327.69;;;-2.13;74.52
57232;BME280;43488;46.934;8.276;2023-02-11T05:36:57;98322.94;;;-2.05;74.31
57232;BME280;43488;46.934;8.276;2023-02-11T05:39:24;98315.81;;;-2.16;74.07
57232;BME280;43488;46.934;8.276;2023-02-11T05:41:52;98319.91;;;-2.27;74.00
57232;BME280;43488;46.934;8.276;2023-02-11T05:44:20;98326.38;;;-2.36;75.08
57232;BME280;43488;46.934;8.276;2023-02-11T05:46:48;98325.47;;;-2.35;75.59
57232;BME280;43488;46.934;8.276;2023-02-11T05:49:16;98337.03;;;-2.26;75.33
57232;BME280;43488;46.934;8.276;2023-02-11T05:51:43;98334.28;;;-2.23;75.46
57232;BME280;43488;46.934;8.276;2023-02-11T05:54:11;98336.69;;;-2.20;75.10
57232;BME280;43488;46.934;8.276;2023-02-11T05:56:38;98347.50;;;-2.14;75.73
57232;BME280;43488;46.934;8.276;2023-02-11T05:59:05;98356.84;;;-2.11;75.33
57232;BME280;43488;46.934;8.276;2023-02-11T06:01:33;98344.84;;;-2.12;74.83
57232;BME280;43488;46.934;8.276;2023-02-11T06:04:00;98342.63;;;-2.18;74.19
57232;BME280;43488;46.934;8.276;2023-02-11T06:06:28;98356.75;;;-2.41;73.84
57232;BME280;43488;46.934;8.276;2023-02-11T06:08:55;98349.41;;;-2.49;74.48
57232;BME280;43488;46.934;8.276;2023-02-11T06:11:22;98343.06;;;-2.59;75.10
57232;BME280;43488;46.934;8.276;2023-02-11T06:13:50;98349.91;;;-2.42;75.25
57232;BME280;43488;46.934;8.276;2023-02-11T06:16:17;98348.69;;;-2.35;74.66
57232;BME280;43488;46.934;8.276;2023-02-11T06:18:44;98351.97;;;-2.49;74.50
57232;BME280;43488;46.934;8.276;2023-02-11T06:21:12;98347.25;;;-2.41;74.79
57232;BME280;43488;46.934;8.276;2023-02-11T06:23:39;98352.09;;;-2.35;74.51
57232;BME280;43488;46.934;8.276;2023-02-11T06:26:09;98346.75;;;-2.32;74.83
57232;BME280;43488;46.934;8.276;2023-02-11T06:28:42;98351.09;;;-2.32;74.76
57232;BME280;43488;46.934;8.276;2023-02-11T06:31:10;98350.91;;;-2.29;74.71
57232;BME280;43488;46.934;8.276;2023-02-11T06:33:38;98357.41;;;-2.22;74.86
57232;BME280;43488;46.934;8.276;2023-02-11T06:36:18;98367.81;;;-2.23;73.98
57232;BME280;43488;46.934;8.276;2023-02-11T06:38:46;98370.41;;;-2.23;73.75
57232;BME280;43488;46.934;8.276;2023-02-11T06:41:16;98380.91;;;-2.26;73.99
57232;BME280;43488;46.934;8.276;2023-02-11T06:43:46;98384.81;;;-2.19;73.41
57232;BME280;43488;46.934;8.276;2023-02-11T06:46:14;98367.34;;;-2.14;73.64
57232;BME280;43488;46.934;8.276;2023-02-11T06:48:42;98380.00;;;-2.10;73.87
57232;BME280;43488;46.934;8.276;2023-02-11T06:51:10;98368.91;;;-2.12;73.41
57232;BME280;43488;46.934;8.276;2023-02-11T06:53:42;98373.81;;;-2.07;73.11
57232;BME280;43488;46.934;8.276;2023-02-11T06:56:16;98382.25;;;-2.19;73.51
57232;BME280;43488;46.934;8.276;2023-02-11T06:58:45;98394.66;;;-2.10;74.44
57232;BME280;43488;46.934;8.276;2023-02-11T07:01:15;98393.22;;;-2.16;74.14
57232;BME280;43488;46.934;8.276;2023-02-11T07:03:44;98393.72;;;-2.25;74.14
57232;BME280;43488;46.934;8.276;2023-02-11T07:06:18;98399.22;;;-2.15;74.21
57232;BME280;43488;46.934;8.276;2023-02-11T07:08:46;98393.88;;;-2.12;73.19
57232;BME280;43488;46.934;8.276;2023-02-11T07:11:24;98393.22;;;-2.16;72.97
57232;BME280;43488;46.934;8.276;2023-02-11T07:13:54;98392.97;;;-2.11;73.03
57232;BME280;43488;46.934;8.276;2023-02-11T07:16:22;98397.88;;;-2.07;72.86
57232;BME280;43488;46.934;8.276;2023-02-11T07:18:49;98397.88;;;-2.07;72.96
57232;BME280;43488;46.934;8.276;2023-02-11T07:21:19;98397.47;;;-1.99;73.39
57232;BME280;43488;46.934;8.276;2023-02-11T07:23:47;98402.28;;;-1.93;72.97
57232;BME280;43488;46.934;8.276;2023-02-11T07:26:21;98403.72;;;-2.03;73.05
57232;BME280;43488;46.934;8.276;2023-02-11T07:28:57;98401.97;;;-2.03;73.55
57232;BME280;43488;46.934;8.276;2023-02-11T07:31:27;98400.69;;;-2.11;74.21
57232;BME280;43488;46.934;8.276;2023-02-11T07:33:59;98404.63;;;-2.04;73.76
57232;BME280;43488;46.934;8.276;2023-02-11T07:36:29;98401.31;;;-2.06;73.63
57232;BME280;43488;46.934;8.276;2023-02-11T07:38:58;98401.38;;;-2.08;73.30
57232;BME280;43488;46.934;8.276;2023-02-11T07:41:26;98400.13;;;-2.16;73.72
57232;BME280;43488;46.934;8.276;2023-02-11T07:43:54;98384.38;;;-2.12;73.70
57232;BME280;43488;46.934;8.276;2023-02-11T07:46:25;98385.22;;;-2.11;73.80
57232;BME280;43488;46.934;8.276;2023-02-11T07:48:53;98385.91;;;-2.08;73.71
57232;BME280;43488;46.934;8.276;2023-02-11T07:51:27;98376.09;;;-2.01;73.34
57232;BME280;43488;46.934;8.276;2023-02-11T07:53:58;98378.50;;;-1.98;73.41
57232;BME280;43488;46.934;8.276;2023-02-11T07:56:27;98375.41;;;-1.89;73.98
57232;BME280;43488;46.934;8.276;2023-02-11T07:58:59;98390.31;;;-1.78;74.47
57232;BME280;43488;46.934;8.276;2023-02-11T08:01:27;98383.16;;;-1.73;74.11
57232;BME280;43488;46.934;8.276;2023-02-11T08:03:59;98375.34;;;-1.57;73.82
57232;BME280;43488;46.934;8.276;2023-02-11T08:06:32;98386.69;;;-1.44;74.20
57232;BME280;43488;46.934;8.276;2023-02-11T08:09:06;98390.91;;;-1.27;74.60
57232;BME280;43488;46.934;8.276;2023-02-11T08:11:33;98391.75;;;-1.12;74.99
57232;BME280;43488;46.934;8.276;2023-02-11T08:14:01;98385.94;;;-1.02;74.37
57232;BME280;43488;46.934;8.276;2023-02-11T08:16:32;98383.50;;;-0.89;74.67
57232;BME280;43488;46.934;8.276;2023-02-11T08:19:04;98387.75;;;-0.74;74.56
57232;BME280;43488;46.934;8.276;2023-02-11T08:21:32;98383.72;;;-0.64;74.32
57232;BME280;43488;46.934;8.276;2023-02-11T08:24:02;98372.97;;;-0.58;74.97
57232;BME280;43488;46.934;8.276;2023-02-11T08:26:33;98372.06;;;-0.42;75.00
57232;BME280;43488;46.934;8.276;2023-02-11T08:29:10;98375.84;;;-0.34;74.85
57232;BME280;43488;46.934;8.276;2023-02-11T08:31:41;98373.44;;;-0.22;75.08
57232;BME280;43488;46.934;8.276;2023-02-11T08:34:09;98377.31;;;-0.15;75.77
57232;BME280;43488;46.934;8.276;2023-02-11T08:36:39;98365.00;;;-0.12;75.52
57232;BME280;43488;46.934;8.276;2023-02-11T08:39:14;98355.09;;;-0.05;74.25
57232;BME280;43488;46.934;8.276;2023-02-11T08:41:41;98376.53;;;0.11;73.62
57232;BME280;43488;46.934;8.276;2023-02-11T08:44:10;98371.38;;;0.24;73.31
57232;BME280;43488;46.934;8.276;2023-02-11T08:46:37;98385.13;;;0.39;72.88
57232;BME280;43488;46.934;8.276;2023-02-11T08:49:05;98378.94;;;0.54;72.99
57232;BME280;43488;46.934;8.276;2023-02-11T08:51:32;98382.44;;;0.67;73.53
57232;BME280;43488;46.934;8.276;2023-02-11T08:54:00;98390.63;;;0.74;75.09
57232;BME280;43488;46.934;8.276;2023-02-11T08:56:29;98394.53;;;0.94;74.19
57232;BME280;43488;46.934;8.276;2023-02-11T08:58:58;98381.34;;;1.09;75.32
57232;BME280;43488;46.934;8.276;2023-02-11T09:01:29;98386.34;;;1.25;73.55
57232;BME280;43488;46.934;8.276;2023-02-11T09:03:58;98387.50;;;1.34;71.54
57232;BME280;43488;46.934;8.276;2023-02-11T09:06:26;98372.66;;;1.49;70.80
57232;BME280;43488;46.934;8.276;2023-02-11T09:08:56;98378.97;;;1.57;68.63
57232;BME280;43488;46.934;8.276;2023-02-11T09:11:31;98368.06;;;1.65;68.73
57232;BME280;43488;46.934;8.276;2023-02-11T09:13:59;98364.09;;;1.85;69.44
57232;BME280;43488;46.934;8.276;2023-02-11T09:16:30;98362.28;;;1.98;67.90
57232;BME280;43488;46.934;8.276;2023-02-11T09:18:59;98363.78;;;2.13;68.30
57232;BME280;43488;46.934;8.276;2023-02-11T09:21:28;98357.72;;;2.25;67.59
57232;BME280;43488;46.934;8.276;2023-02-11T09:23:56;98350.69;;;2.39;67.10
57232;BME280;43488;46.934;8.276;2023-02-11T09:26:30;98336.91;;;2.49;64.33
57232;BME280;43488;46.934;8.276;2023-02-11T09:28:59;98345.59;;;2.61;61.85
57232;BME280;43488;46.934;8.276;2023-02-11T09:31:29;98341.47;;;2.70;60.06
57232;BME280;43488;46.934;8.276;2023-02-11T09:34:01;98336.88;;;2.73;56.46
57232;BME280;43488;46.934;8.276;2023-02-11T09:36:34;98331.94;;;2.81;55.86
57232;BME280;43488;46.934;8.276;2023-02-11T09:39:07;98334.59;;;2.93;57.03
57232;BME280;43488;46.934;8.276;2023-02-11T09:44:48;98322.69;;;3.24;55.78
57232;BME280;43488;46.934;8.276;2023-02-11T09:47:33;98324.22;;;3.37;54.57
57232;BME280;43488;46.934;8.276;2023-02-11T09:50:12;98316.53;;;3.36;54.48
57232;BME280;43488;46.934;8.276;2023-02-11T09:53:26;98302.69;;;3.58;55.72
57232;BME280;43488;46.934;8.276;2023-02-11T09:56:00;98298.88;;;3.73;55.41
57232;BME280;43488;46.934;8.276;2023-02-11T09:58:33;98293.75;;;3.83;54.16
57232;BME280;43488;46.934;8.276;2023-02-11T10:01:32;98287.81;;;4.03;52.64
57232;BME280;43488;46.934;8.276;2023-02-11T10:12:32;98264.91;;;4.39;49.73
57232;BME280;43488;46.934;8.276;2023-02-11T10:15:41;98266.19;;;4.44;50.03
57232;BME280;43488;46.934;8.276;2023-02-11T10:18:30;98262.13;;;4.51;49.33
57232;BME280;43488;46.934;8.276;2023-02-11T10:21:37;98262.59;;;4.77;48.72
57232;BME280;43488;46.934;8.276;2023-02-11T10:24:10;98261.19;;;5.25;46.18
57232;BME280;43488;46.934;8.276;2023-02-11T10:26:42;98256.38;;;5.70;44.47
57232;BME280;43488;46.934;8.276;2023-02-11T10:29:34;98264.94;;;5.82;43.42
57232;BME280;43488;46.934;8.276;2023-02-11T10:32:09;98268.44;;;6.31;43.85
57232;BME280;43488;46.934;8.276;2023-02-11T10:34:40;98271.91;;;6.70;43.75
57232;BME280;43488;46.934;8.276;2023-02-11T10:37:10;98269.06;;;7.00;44.85
57232;BME280;43488;46.934;8.276;2023-02-11T10:39:39;98267.03;;;7.41;44.92
57232;BME280;43488;46.934;8.276;2023-02-11T10:42:09;98257.56;;;7.58;43.86
57232;BME280;43488;46.934;8.276;2023-02-11T10:44:43;98251.94;;;7.80;42.80
57232;BME280;43488;46.934;8.276;2023-02-11T10:47:23;98255.72;;;7.95;43.62
57232;BME280;43488;46.934;8.276;2023-02-11T10:49:50;98246.72;;;8.16;41.65
57232;BME280;43488;46.934;8.276;2023-02-11T10:52:25;98244.47;;;8.21;40.76
57232;BME280;43488;46.934;8.276;2023-02-11T10:55:01;98236.84;;;8.45;41.10
57232;BME280;43488;46.934;8.276;2023-02-11T10:57:40;98229.75;;;8.64;41.40
57232;BME280;43488;46.934;8.276;2023-02-11T11:02:43;98238.16;;;8.93;40.30
57232;BME280;43488;46.934;8.276;2023-02-11T11:05:16;98248.22;;;8.98;40.14
57232;BME280;43488;46.934;8.276;2023-02-11T11:08:08;98244.72;;;8.89;39.05
57232;BME280;43488;46.934;8.276;2023-02-11T11:10:44;98243.75;;;8.90;40.59
57232;BME280;43488;46.934;8.276;2023-02-11T11:13:35;98241.97;;;9.25;41.91
57232;BME280;43488;46.934;8.276;2023-02-11T11:18:40;98232.81;;;9.87;36.07
57232;BME280;43488;46.934;8.276;2023-02-11T11:21:43;98232.94;;;10.28;34.76
57232;BME280;43488;46.934;8.276;2023-02-11T11:24:20;98229.66;;;10.75;34.56
57232;BME280;43488;46.934;8.276;2023-02-11T11:26:56;98220.06;;;10.98;34.19
57232;BME280;43488;46.934;8.276;2023-02-11T11:29:38;98218.97;;;10.36;36.83
57232;BME280;43488;46.934;8.276;2023-02-11T11:32:19;98217.16;;;10.28;38.13
57232;BME280;43488;46.934;8.276;2023-02-11T11:34:49;98214.84;;;10.66;38.12
57232;BME280;43488;46.934;8.276;2023-02-11T11:37:25;98227.00;;;10.99;38.11
57232;BME280;43488;46.934;8.276;2023-02-11T11:42:31;98221.91;;;10.73;38.82
57232;BME280;43488;46.934;8.276;2023-02-11T11:50:44;98231.75;;;8.44;44.58
57232;BME280;43488;46.934;8.276;2023-02-11T11:53:20;98231.44;;;8.47;44.11
57232;BME280;43488;46.934;8.276;2023-02-11T11:56:23;98233.00;;;8.58;44.16
57232;BME280;43488;46.934;8.276;2023-02-11T11:58:42;98234.38;;;8.44;45.64
57232;BME280;43488;46.934;8.276;2023-02-11T12:20:30;98214.84;;;15.15;32.49
57232;BME280;43488;46.934;8.276;2023-02-11T12:27:00;98214.38;;;18.17;27.54
57232;BME280;43488;46.934;8.276;2023-02-11T12:30:13;98216.44;;;18.15;27.75
57232;BME280;43488;46.934;8.276;2023-02-11T12:36:06;98210.88;;;16.67;29.39
57232;BME280;43488;46.934;8.276;2023-02-11T12:39:06;98216.44;;;18.15;28.17
57232;BME280;43488;46.934;8.276;2023-02-11T12:54:30;98213.25;;;14.21;31.65
57232;BME280;43488;46.934;8.276;2023-02-11T12:57:25;98210.97;;;14.61;31.77
57232;BME280;43488;46.934;8.276;2023-02-11T13:00:17;98212.09;;;15.71;29.88
57232;BME280;43488;46.934;8.276;2023-02-11T13:05:57;98209.38;;;20.49;24.34
57232;BME280;43488;46.934;8.276;2023-02-11T13:08:37;98216.13;;;22.37;21.61
57232;BME280;43488;46.934;8.276;2023-02-11T13:11:18;98210.38;;;23.68;20.52
57232;BME280;43488;46.934;8.276;2023-02-11T13:14:29;98207.47;;;24.45;19.43
57232;BME280;43488;46.934;8.276;2023-02-11T13:16:58;98202.22;;;24.06;19.91
57232;BME280;43488;46.934;8.276;2023-02-11T13:19:42;98213.84;;;25.35;18.56
57232;BME280;43488;46.934;8.276;2023-02-11T13:22:31;98195.94;;;26.80;17.38
57232;BME280;43488;46.934;8.276;2023-02-11T13:25:30;98200.31;;;25.88;18.88
57232;BME280;43488;46.934;8.276;2023-02-11T13:30:41;98194.88;;;25.15;18.74
57232;BME280;43488;46.934;8.276;2023-02-11T13:33:29;98198.53;;;26.08;18.13
57232;BME280;43488;46.934;8.276;2023-02-11T13:38:30;98185.03;;;26.24;18.14
57232;BME280;43488;46.934;8.276;2023-02-11T13:43:34;98184.34;;;27.80;16.48
57232;BME280;43488;46.934;8.276;2023-02-11T13:46:10;98181.59;;;25.56;18.09
57232;BME280;43488;46.934;8.276;2023-02-11T13:48:46;98180.91;;;24.54;19.10
57232;BME280;43488;46.934;8.276;2023-02-11T13:51:32;98186.16;;;24.71;18.91
57232;BME280;43488;46.934;8.276;2023-02-11T13:54:01;98190.81;;;23.72;19.39
57232;BME280;43488;46.934;8.276;2023-02-11T13:56:34;98186.06;;;23.79;19.31
57232;BME280;43488;46.934;8.276;2023-02-11T13:59:06;98175.22;;;23.96;19.21
57232;BME280;43488;46.934;8.276;2023-02-11T14:11:08;98182.84;;;18.95;23.58
57232;BME280;43488;46.934;8.276;2023-02-11T14:16:23;98185.50;;;16.52;27.16
57232;BME280;43488;46.934;8.276;2023-02-11T14:26:59;98176.38;;;15.73;28.90
57232;BME280;43488;46.934;8.276;2023-02-11T14:29:32;98172.88;;;15.66;28.96
57232;BME280;43488;46.934;8.276;2023-02-11T14:38:03;98168.97;;;15.21;29.82
57232;BME280;43488;46.934;8.276;2023-02-11T14:40:40;98162.94;;;15.40;30.09
57232;BME280;43488;46.934;8.276;2023-02-11T14:43:20;98161.25;;;15.74;29.33
57232;BME280;43488;46.934;8.276;2023-02-11T14:45:53;98154.81;;;16.89;27.74
57232;BME280;43488;46.934;8.276;2023-02-11T14:48:28;98162.41;;;16.92;28.04
57232;BME280;43488;46.934;8.276;2023-02-11T14:51:11;98163.03;;;18.03;26.89
57232;BME280;43488;46.934;8.276;2023-02-11T14:53:47;98153.88;;;17.41;26.81
57232;BME280;43488;46.934;8.276;2023-02-11T14:56:25;98157.69;;;16.47;28.01
57232;BME280;43488;46.934;8.276;2023-02-11T14:58:54;98151.91;;;15.98;29.04
57232;BME280;43488;46.934;8.276;2023-02-11T15:01:32;98153.59;;;16.38;28.77
57232;BME280;43488;46.934;8.276;2023-02-11T15:04:05;98154.41;;;16.59;28.39
57232;BME280;43488;46.934;8.276;2023-02-11T15:06:39;98159.25;;;17.21;27.80
57232;BME280;43488;46.934;8.276;2023-02-11T15:09:24;98151.22;;;17.86;27.29
57232;BME280;43488;46.934;8.276;2023-02-11T15:11:57;98147.78;;;18.10;26.54
57232;BME280;43488;46.934;8.276;2023-02-11T15:14:30;98146.88;;;18.98;25.66
57232;BME280;43488;46.934;8.276;2023-02-11T15:17:03;98137.75;;;19.79;24.51
57232;BME280;43488;46.934;8.276;2023-02-11T15:19:39;98149.25;;;20.51;23.54
57232;BME280;43488;46.934;8.276;2023-02-11T15:22:21;98145.53;;;20.87;22.98
57232;BME280;43488;46.934;8.276;2023-02-11T15:25:15;98145.84;;;21.02;22.61
57232;BME280;43488;46.934;8.276;2023-02-11T15:27:51;98153.19;;;21.19;22.68
57232;BME280;43488;46.934;8.276;2023-02-11T15:32:59;98156.34;;;20.81;22.95
57232;BME280;43488;46.934;8.276;2023-02-11T15:35:36;98148.72;;;20.31;23.34
57232;BME280;43488;46.934;8.276;2023-02-11T15:38:05;98146.84;;;20.31;23.58
57232;BME280;43488;46.934;8.276;2023-02-11T15:40:36;98142.28;;;20.20;23.34
57232;BME280;43488;46.934;8.276;2023-02-11T15:43:09;98146.91;;;19.16;24.17
57232;BME280;43488;46.934;8.276;2023-02-11T15:49:12;98151.16;;;16.30;28.23
57232;BME280;43488;46.934;8.276;2023-02-11T15:51:35;98149.63;;;15.33;30.09
57232;BME280;43488;46.934;8.276;2023-02-11T15:54:20;98163.03;;;14.56;31.46
57232;BME280;43488;46.934;8.276;2023-02-11T15:56:50;98162.72;;;14.02;33.41
57232;BME280;43488;46.934;8.276;2023-02-11T15:59:28;98166.81;;;13.47;34.20